createdAt,value
2024-03-26T00:01:41.214Z,6.09
2024-03-26T00:04:09.400Z,6.20
2024-03-26T00:06:37.339Z,6.30
2024-03-26T00:09:05.447Z,6.38
2024-03-26T00:11:33.397Z,6.44
2024-03-26T00:14:01.368Z,6.50
2024-03-26T00:16:29.462Z,6.55
2024-03-26T00:18:57.398Z,6.58
2024-03-26T00:21:25.266Z,6.63
2024-03-26T00:23:53.262Z,6.67
2024-03-26T00:26:21.503Z,6.70
2024-03-26T00:28:49.363Z,6.72
2024-03-26T00:31:17.446Z,6.76
2024-03-26T00:33:45.589Z,6.78
2024-03-26T00:36:13.585Z,6.80
2024-03-26T00:38:41.571Z,6.73
2024-03-26T00:41:09.518Z,6.23
2024-03-26T00:43:37.591Z,5.62
2024-03-26T00:46:05.566Z,5.14
2024-03-26T00:48:33.633Z,4.75
2024-03-26T00:51:01.707Z,4.44
2024-03-26T00:53:29.677Z,4.18
2024-03-26T00:55:57.749Z,4.00
2024-03-26T00:58:25.750Z,4.30
2024-03-26T01:00:54.611Z,4.71
2024-03-26T01:03:22.471Z,5.02
2024-03-26T01:05:59.959Z,5.23
2024-03-26T01:08:28.053Z,5.40
2024-03-26T01:10:56.551Z,5.51
2024-03-26T01:13:24.783Z,5.62
2024-03-26T01:15:53.281Z,5.70
2024-03-26T01:18:21.131Z,5.78
2024-03-26T01:20:49.200Z,5.85
2024-03-26T01:23:17.284Z,5.90
2024-03-26T01:25:45.145Z,5.95
2024-03-26T01:28:13.170Z,5.99
2024-03-26T01:30:41.282Z,6.01
2024-03-26T01:33:09.151Z,6.03
2024-03-26T01:35:38.174Z,5.98
2024-03-26T01:38:06.105Z,5.47
2024-03-26T01:40:34.075Z,4.88
2024-03-26T01:43:02.073Z,4.41
2024-03-26T01:45:31.240Z,4.05
2024-03-26T01:47:59.312Z,3.75
2024-03-26T01:50:28.340Z,3.54
2024-03-26T01:52:56.894Z,3.79
2024-03-26T01:55:26.405Z,4.22
2024-03-26T01:57:54.592Z,4.53
2024-03-26T02:00:25.778Z,4.75
2024-03-26T02:02:54.195Z,4.92
2024-03-26T02:05:22.696Z,5.05
2024-03-26T02:07:51.162Z,5.15
2024-03-26T02:10:20.454Z,5.24
2024-03-26T02:12:48.440Z,5.33
2024-03-26T02:15:16.388Z,5.40
2024-03-26T02:17:44.358Z,5.47
2024-03-26T02:20:13.766Z,5.52
2024-03-26T02:22:41.837Z,5.59
2024-03-26T02:25:09.837Z,5.63
2024-03-26T02:27:37.666Z,5.67
2024-03-26T02:30:06.563Z,5.71
2024-03-26T02:32:34.563Z,5.74
2024-03-26T02:35:02.492Z,5.76
2024-03-26T02:37:30.465Z,5.77
2024-03-26T02:39:58.357Z,5.79
2024-03-26T02:42:26.305Z,5.80
2024-03-26T02:44:54.267Z,5.81
2024-03-26T02:47:22.662Z,5.74
2024-03-26T02:49:50.724Z,5.22
2024-03-26T02:52:18.838Z,4.61
2024-03-26T02:54:46.862Z,4.13
2024-03-26T02:57:14.809Z,3.75
2024-03-26T02:59:42.830Z,3.43
2024-03-26T03:02:11.073Z,3.16
2024-03-26T03:04:39.048Z,2.98
2024-03-26T03:07:07.037Z,3.28
2024-03-26T03:09:35.184Z,3.72
2024-03-26T03:12:03.150Z,4.03
2024-03-26T03:14:31.338Z,4.24
2024-03-26T03:16:59.234Z,4.41
2024-03-26T03:19:27.366Z,4.55
2024-03-26T03:21:55.441Z,4.66
2024-03-26T03:24:23.518Z,4.76
2024-03-26T03:26:51.481Z,4.84
2024-03-26T03:29:19.347Z,4.92
2024-03-26T03:31:47.511Z,4.99
2024-03-26T03:34:15.393Z,5.06
2024-03-26T03:36:43.349Z,5.11
2024-03-26T03:39:11.214Z,5.15
2024-03-26T03:41:39.280Z,5.20
2024-03-26T03:44:07.260Z,5.24
2024-03-26T03:46:35.223Z,5.26
2024-03-26T03:49:03.513Z,5.28
2024-03-26T03:51:31.595Z,5.31
2024-03-26T03:53:59.654Z,5.34
2024-03-26T03:56:27.819Z,5.35
2024-03-26T03:58:55.896Z,5.36
2024-03-26T04:01:23.752Z,5.37
2024-03-26T04:03:51.618Z,5.37
2024-03-26T04:06:19.697Z,5.38
2024-03-26T04:08:47.664Z,5.39
2024-03-26T04:11:15.771Z,5.41
2024-03-26T04:13:43.650Z,5.43
2024-03-26T04:16:11.986Z,5.45
2024-03-26T04:18:39.943Z,5.47
2024-03-26T04:21:10.367Z,5.52
2024-03-26T04:23:38.649Z,5.56
2024-03-26T04:26:06.828Z,5.61
2024-03-26T04:28:34.801Z,5.65
2024-03-26T04:31:03.571Z,5.70
2024-03-26T04:33:32.093Z,5.74
2024-03-26T04:36:00.037Z,5.77
2024-03-26T04:38:27.994Z,5.81
2024-03-26T04:40:55.959Z,5.84
2024-03-26T04:43:23.826Z,5.88
2024-03-26T04:45:53.695Z,5.92
2024-03-26T04:48:21.919Z,5.97
2024-03-26T04:50:50.008Z,6.02
2024-03-26T04:53:17.907Z,6.07
2024-03-26T04:55:47.078Z,6.13
2024-03-26T04:58:14.919Z,6.20
2024-03-26T05:00:42.782Z,6.25
2024-03-26T05:03:10.966Z,6.32
2024-03-26T05:05:39.047Z,6.38
2024-03-26T05:08:07.026Z,6.44
2024-03-26T05:10:35.573Z,6.52
2024-03-26T05:13:03.646Z,6.60
2024-03-26T05:15:34.838Z,6.66
2024-03-26T05:18:02.888Z,6.71
2024-03-26T05:20:30.831Z,6.78
2024-03-26T05:22:58.916Z,6.84
2024-03-26T05:25:26.874Z,6.93
2024-03-26T05:27:54.941Z,7.00
2024-03-26T05:30:22.915Z,7.04
2024-03-26T05:32:52.275Z,7.11
2024-03-26T05:35:20.409Z,7.20
2024-03-26T05:37:48.759Z,7.29
2024-03-26T05:40:17.489Z,7.35
2024-03-26T05:42:45.535Z,7.38
2024-03-26T05:45:13.498Z,7.46
2024-03-26T05:47:41.705Z,7.55
2024-03-26T05:50:10.055Z,7.65
2024-03-26T05:52:38.108Z,7.74
2024-03-26T05:55:06.794Z,7.83
2024-03-26T05:57:34.795Z,7.84
2024-03-26T06:00:02.934Z,7.43
2024-03-26T06:02:32.368Z,6.95
2024-03-26T06:05:00.544Z,6.61
2024-03-26T06:07:28.582Z,6.34
2024-03-26T06:09:56.614Z,6.18
2024-03-26T06:12:25.360Z,6.55
2024-03-26T06:14:53.336Z,7.04
2024-03-26T06:17:21.293Z,7.42
2024-03-26T06:19:50.693Z,7.69
2024-03-26T06:22:18.753Z,7.90
2024-03-26T06:24:46.720Z,8.08
2024-03-26T06:27:14.694Z,8.23
2024-03-26T06:29:42.865Z,8.36
2024-03-26T06:32:10.860Z,8.48
2024-03-26T06:34:40.041Z,8.62
2024-03-26T06:37:09.128Z,8.76
2024-03-26T06:39:37.012Z,8.89
2024-03-26T06:42:05.063Z,9.00
2024-03-26T06:44:33.341Z,9.07
2024-03-26T06:47:01.419Z,9.13
2024-03-26T06:49:29.279Z,9.23
2024-03-26T06:51:57.186Z,9.37
2024-03-26T06:54:25.324Z,9.43
2024-03-26T06:56:53.180Z,9.08
2024-03-26T06:59:21.389Z,8.63
2024-03-26T07:01:49.230Z,8.30
2024-03-26T07:04:17.199Z,8.09
2024-03-26T07:06:46.419Z,8.16
2024-03-26T07:09:14.356Z,8.59
2024-03-26T07:11:43.146Z,9.00
2024-03-26T07:14:14.094Z,9.36
2024-03-26T07:16:41.960Z,9.67
2024-03-26T07:19:09.999Z,9.93
2024-03-26T07:21:39.936Z,10.17
2024-03-26T07:31:47.174Z,10.91
2024-03-26T07:34:16.881Z,10.58
2024-03-26T07:36:44.768Z,10.10
2024-03-26T07:39:16.719Z,9.75
2024-03-26T07:41:46.156Z,9.49
2024-03-26T07:44:15.308Z,9.31
2024-03-26T07:46:45.430Z,9.27
2024-03-26T07:49:13.582Z,9.75
2024-03-26T07:51:41.767Z,10.29
2024-03-26T07:54:10.770Z,10.74
2024-03-26T07:56:38.947Z,11.09
2024-03-26T07:59:06.822Z,11.38
2024-03-26T08:01:35.298Z,11.60
2024-03-26T08:04:03.673Z,11.36
2024-03-26T08:06:31.803Z,10.97
2024-03-26T08:09:00.037Z,10.68
2024-03-26T08:11:28.388Z,10.48
2024-03-26T08:13:56.503Z,10.31
2024-03-26T08:16:24.444Z,10.27
2024-03-26T08:18:52.606Z,10.72
2024-03-26T08:21:20.563Z,11.29
2024-03-26T08:23:49.192Z,11.76
2024-03-26T08:26:17.127Z,12.15
2024-03-26T08:28:45.114Z,12.38
2024-03-26T08:31:13.168Z,12.14
2024-03-26T08:33:41.231Z,11.78
2024-03-26T08:36:09.424Z,11.52
2024-03-26T08:38:37.380Z,11.36
2024-03-26T08:41:05.482Z,11.23
2024-03-26T08:43:33.624Z,11.14
2024-03-26T08:46:01.793Z,11.16
2024-03-26T08:48:29.788Z,11.66
2024-03-26T08:50:57.775Z,12.20
2024-03-26T08:53:26.216Z,12.57
2024-03-26T08:55:54.480Z,12.92
2024-03-26T08:58:24.815Z,13.14
2024-03-26T09:00:52.833Z,12.85
2024-03-26T09:03:20.765Z,12.43
2024-03-26T09:05:49.233Z,12.05
2024-03-26T09:08:17.141Z,11.78
2024-03-26T09:10:47.131Z,11.47
2024-03-26T09:13:14.884Z,11.22
2024-03-26T09:15:42.739Z,11.02
2024-03-26T09:18:10.652Z,10.93
2024-03-26T09:20:38.586Z,11.22
2024-03-26T09:23:06.472Z,11.55
2024-03-26T09:25:34.618Z,11.78
2024-03-26T09:28:02.616Z,11.96
2024-03-26T09:30:31.194Z,12.10
2024-03-26T09:32:59.331Z,12.21
2024-03-26T09:35:27.535Z,12.25
2024-03-26T09:37:55.394Z,11.87
2024-03-26T09:40:23.403Z,11.33
2024-03-26T09:42:53.070Z,10.90
2024-03-26T09:45:21.774Z,10.57
2024-03-26T09:47:50.683Z,10.39
2024-03-26T09:50:20.460Z,10.73
2024-03-26T09:52:50.267Z,11.20
2024-03-26T09:55:19.963Z,11.56
2024-03-26T09:57:48.157Z,11.84
2024-03-26T10:00:17.158Z,12.07
2024-03-26T10:02:47.117Z,12.17
2024-03-26T10:05:19.021Z,11.78
2024-03-26T10:07:48.163Z,11.36
2024-03-26T10:10:17.036Z,11.03
2024-03-26T10:12:45.233Z,10.80
2024-03-26T10:15:13.359Z,10.62
2024-03-26T10:17:41.334Z,10.60
2024-03-26T10:20:10.237Z,11.06
2024-03-26T10:22:38.787Z,11.57
2024-03-26T10:25:07.738Z,11.96
2024-03-26T10:27:35.695Z,12.16
2024-03-26T10:30:09.276Z,11.87
2024-03-26T10:32:38.173Z,11.49
2024-03-26T10:35:09.724Z,11.21
2024-03-26T10:37:38.585Z,11.04
2024-03-26T10:40:10.346Z,10.93
2024-03-26T10:42:48.041Z,10.83
2024-03-26T10:45:32.272Z,10.76
2024-03-26T10:48:08.109Z,10.70
2024-03-26T10:50:37.164Z,10.66
2024-03-26T10:53:06.327Z,10.64
2024-03-26T10:55:35.831Z,10.64
2024-03-26T10:58:04.341Z,10.64
2024-03-26T11:00:35.671Z,10.65
2024-03-26T11:03:04.222Z,10.65
2024-03-26T11:05:32.728Z,10.68
2024-03-26T11:08:01.430Z,10.74
2024-03-26T11:10:29.590Z,10.80
2024-03-26T11:12:59.298Z,10.90
2024-03-26T11:15:29.532Z,11.06
2024-03-26T11:18:04.368Z,11.19
2024-03-26T11:20:33.861Z,11.29
2024-03-26T11:23:06.484Z,11.35
2024-03-26T11:25:35.526Z,11.41
2024-03-26T11:28:04.785Z,11.46
2024-03-26T11:30:34.795Z,11.54
2024-03-26T11:33:03.038Z,11.64
2024-03-26T11:35:31.435Z,11.76
2024-03-26T11:38:03.665Z,11.87
2024-03-26T11:40:32.762Z,12.01
2024-03-26T11:43:01.480Z,12.12
2024-03-26T11:45:29.411Z,12.14
2024-03-26T11:47:58.646Z,12.07
2024-03-26T11:50:26.792Z,11.97
2024-03-26T11:52:55.366Z,11.97
2024-03-26T11:55:23.463Z,12.01
2024-03-26T11:57:52.023Z,12.00
2024-03-26T12:00:20.811Z,11.96
2024-03-26T12:02:49.310Z,11.90
2024-03-26T12:05:17.264Z,11.87
2024-03-26T12:07:46.175Z,11.90
2024-03-26T12:10:14.120Z,12.03
2024-03-26T12:12:42.187Z,12.14
2024-03-26T12:15:13.666Z,12.22
2024-03-26T12:17:41.916Z,12.27
2024-03-26T12:20:13.371Z,12.35
2024-03-26T12:22:41.870Z,12.51
2024-03-26T12:25:11.051Z,12.66
2024-03-26T12:27:46.089Z,12.82
2024-03-26T12:30:15.479Z,12.99
2024-03-26T12:32:43.354Z,13.10
2024-03-26T12:35:11.319Z,13.15
2024-03-26T12:37:42.798Z,13.16
2024-03-26T12:40:15.035Z,13.17
2024-03-26T12:42:43.216Z,13.18
2024-03-26T12:45:11.149Z,13.22
2024-03-26T12:47:39.256Z,13.24
2024-03-26T12:50:07.989Z,13.22
2024-03-26T12:52:41.058Z,13.22
2024-03-26T12:55:09.204Z,13.29
2024-03-26T12:57:37.992Z,13.38
2024-03-26T13:00:07.009Z,13.43
2024-03-26T13:02:35.054Z,13.44
2024-03-26T13:05:03.250Z,13.41
2024-03-26T13:07:31.311Z,13.33
2024-03-26T13:09:59.482Z,13.27
2024-03-26T13:12:27.463Z,13.32
2024-03-26T13:14:55.405Z,13.44
2024-03-26T13:17:23.519Z,13.49
2024-03-26T13:19:55.499Z,13.52
2024-03-26T13:22:24.737Z,13.59
2024-03-26T13:24:52.749Z,13.72
2024-03-26T13:27:20.577Z,13.76
2024-03-26T13:29:48.643Z,13.73
2024-03-26T13:32:19.589Z,13.65
2024-03-26T13:34:47.867Z,13.57
2024-03-26T13:37:15.853Z,13.53
2024-03-26T13:39:44.000Z,13.55
2024-03-26T13:42:12.067Z,13.62
2024-03-26T13:44:39.964Z,13.69
2024-03-26T13:47:08.720Z,13.75
2024-03-26T13:49:36.685Z,13.88
2024-03-26T13:52:04.869Z,13.95
2024-03-26T13:54:34.368Z,13.95
2024-03-26T13:57:02.773Z,13.87
2024-03-26T13:59:30.913Z,13.76
2024-03-26T14:01:59.132Z,13.64
2024-03-26T14:04:27.175Z,13.56
2024-03-26T14:06:55.239Z,13.48
2024-03-26T14:09:23.526Z,13.41
2024-03-26T14:11:51.482Z,13.33
2024-03-26T14:14:19.584Z,13.26
2024-03-26T14:16:47.533Z,13.19
2024-03-26T14:19:16.062Z,13.12
2024-03-26T14:21:43.987Z,13.07
2024-03-26T14:24:11.949Z,13.02
2024-03-26T14:26:40.142Z,12.97
2024-03-26T14:29:07.985Z,12.93
2024-03-26T14:31:37.023Z,12.88
2024-03-26T14:34:04.951Z,12.85
2024-03-26T14:36:33.734Z,12.81
2024-03-26T14:39:01.667Z,12.77
2024-03-26T14:41:30.490Z,12.74
2024-03-26T14:44:01.185Z,12.70
2024-03-26T14:46:29.521Z,12.67
2024-03-26T14:48:57.465Z,12.63
2024-03-26T14:51:25.474Z,12.59
2024-03-26T14:53:53.505Z,12.56
2024-03-26T14:56:21.579Z,12.53
2024-03-26T14:58:50.287Z,12.50
2024-03-26T15:01:18.229Z,12.47
2024-03-26T15:03:46.352Z,12.43
2024-03-26T15:06:17.350Z,12.41
2024-03-26T15:08:46.027Z,12.38
2024-03-26T15:11:14.025Z,12.34
2024-03-26T15:13:42.688Z,12.30
2024-03-26T15:16:16.094Z,12.26
2024-03-26T15:18:44.976Z,12.25
2024-03-26T15:21:13.169Z,12.21
2024-03-26T15:23:41.775Z,12.18
2024-03-26T15:26:09.799Z,12.16
2024-03-26T15:28:56.648Z,12.11
2024-03-26T15:31:43.468Z,12.07
2024-03-26T15:34:11.397Z,12.03
2024-03-26T15:36:40.016Z,11.97
2024-03-26T15:39:09.460Z,11.93
2024-03-26T15:41:37.441Z,11.90
2024-03-26T15:44:05.628Z,11.87
2024-03-26T15:46:44.303Z,11.82
2024-03-26T15:49:16.204Z,11.77
2024-03-26T15:51:44.982Z,11.72
2024-03-26T15:54:13.525Z,11.68
2024-03-26T15:56:41.438Z,11.63
2024-03-26T15:59:09.405Z,11.57
2024-03-26T16:01:37.510Z,11.53
2024-03-26T16:04:07.090Z,11.47
2024-03-26T16:06:34.949Z,11.43
2024-03-26T16:09:04.063Z,11.39
2024-03-26T16:11:33.366Z,11.33
2024-03-26T16:14:02.693Z,11.28
2024-03-26T16:16:30.738Z,11.22
2024-03-26T16:18:58.692Z,11.17
2024-03-26T16:21:26.692Z,11.11
2024-03-26T16:23:54.730Z,11.06
2024-03-26T16:26:22.800Z,10.99
2024-03-26T16:28:57.844Z,10.93
2024-03-26T16:31:26.926Z,10.87
2024-03-26T16:33:54.892Z,10.80
2024-03-26T16:36:22.883Z,10.74
2024-03-26T16:38:51.034Z,10.67
2024-03-26T16:41:36.467Z,10.59
2024-03-26T16:44:04.479Z,10.50
2024-03-26T16:46:32.580Z,10.42
2024-03-26T16:49:00.520Z,10.33
2024-03-26T16:51:28.628Z,10.25
2024-03-26T16:53:56.670Z,10.17
2024-03-26T16:56:25.965Z,10.08
2024-03-26T16:58:53.953Z,9.99
2024-03-26T17:01:23.108Z,9.91
2024-03-26T17:03:51.102Z,9.84
2024-03-26T17:06:19.089Z,9.75
2024-03-26T17:08:47.257Z,9.67
2024-03-26T17:11:16.134Z,9.60
2024-03-26T17:13:44.107Z,9.51
2024-03-26T17:16:12.074Z,9.44
2024-03-26T17:18:40.072Z,9.37
2024-03-26T17:21:08.119Z,9.30
2024-03-26T17:23:36.178Z,9.23
2024-03-26T17:26:04.571Z,9.16
2024-03-26T17:28:33.243Z,9.10
2024-03-26T17:31:01.264Z,9.04
2024-03-26T17:33:29.391Z,8.97
2024-03-26T17:35:57.304Z,8.91
2024-03-26T17:38:25.599Z,8.85
2024-03-26T17:40:54.024Z,8.80
2024-03-26T17:43:22.795Z,8.74
2024-03-26T17:45:52.105Z,8.69
2024-03-26T17:48:19.941Z,8.64
2024-03-26T17:50:55.672Z,8.59
2024-03-26T17:53:23.609Z,8.54
2024-03-26T17:55:51.752Z,8.49
2024-03-26T17:58:20.100Z,8.44
2024-03-26T18:00:48.944Z,8.39
2024-03-26T18:03:18.056Z,8.33
2024-03-26T18:05:46.187Z,8.28
2024-03-26T18:08:14.068Z,8.24
2024-03-26T18:10:43.054Z,8.20
2024-03-26T18:13:12.186Z,8.17
2024-03-26T18:15:40.118Z,8.14
2024-03-26T18:18:08.599Z,8.11
2024-03-26T18:20:37.620Z,8.06
2024-03-26T18:23:05.566Z,8.02
2024-03-26T18:25:33.636Z,7.97
2024-03-26T18:28:05.257Z,7.93
2024-03-26T18:30:33.769Z,7.90
2024-03-26T18:33:01.837Z,7.87
2024-03-26T18:35:30.244Z,7.84
2024-03-26T18:37:58.283Z,7.82
2024-03-26T18:40:26.250Z,7.78
2024-03-26T18:42:54.117Z,7.76
2024-03-26T18:45:22.200Z,7.74
2024-03-26T18:47:50.275Z,7.72
2024-03-26T18:50:18.235Z,7.70
2024-03-26T18:52:46.233Z,7.70
2024-03-26T18:55:14.166Z,7.70
2024-03-26T18:57:42.243Z,7.74
2024-03-26T19:00:11.084Z,8.21
2024-03-26T19:02:42.585Z,8.83
2024-03-26T19:05:12.515Z,9.29
2024-03-26T19:07:40.676Z,9.62
2024-03-26T19:10:09.470Z,9.79
2024-03-26T19:12:37.451Z,9.51
2024-03-26T19:15:06.727Z,9.13
2024-03-26T19:17:35.097Z,8.83
2024-03-26T19:20:03.606Z,8.59
2024-03-26T19:22:31.544Z,8.41
2024-03-26T19:24:59.614Z,8.26
2024-03-26T19:27:27.595Z,8.14
2024-03-26T19:29:55.760Z,8.02
2024-03-26T19:32:23.638Z,7.92
2024-03-26T19:34:52.844Z,7.82
2024-03-26T19:37:20.825Z,7.72
2024-03-26T19:39:48.977Z,7.64
2024-03-26T19:42:16.961Z,7.57
2024-03-26T19:44:47.772Z,7.71
2024-03-26T19:47:15.638Z,8.27
2024-03-26T19:49:43.710Z,8.79
2024-03-26T19:52:12.088Z,9.16
2024-03-26T19:54:40.058Z,9.43
2024-03-26T19:57:08.047Z,9.57
2024-03-26T19:59:36.913Z,9.23
2024-03-26T20:02:04.931Z,8.80
2024-03-26T20:04:32.963Z,8.47
2024-03-26T20:07:01.026Z,8.24
2024-03-26T20:09:29.120Z,8.06
2024-03-26T20:11:57.070Z,7.92
2024-03-26T20:14:25.245Z,7.79
2024-03-26T20:16:53.939Z,7.67
2024-03-26T20:19:22.098Z,7.56
2024-03-26T20:21:50.274Z,7.46
2024-03-26T20:24:18.243Z,7.37
2024-03-26T20:26:46.725Z,7.35
2024-03-26T20:29:14.820Z,7.79
2024-03-26T20:31:43.181Z,8.33
2024-03-26T20:34:11.081Z,8.77
2024-03-26T20:36:39.019Z,9.09
2024-03-26T20:39:10.356Z,9.33
2024-03-26T20:41:38.867Z,9.53
2024-03-26T20:44:07.015Z,9.61
2024-03-26T20:46:35.049Z,9.25
2024-03-26T20:49:02.945Z,8.80
2024-03-26T20:51:30.842Z,8.43
2024-03-26T20:53:58.781Z,8.17
2024-03-26T20:56:26.759Z,7.96
2024-03-26T20:58:56.050Z,7.79
2024-03-26T21:01:24.021Z,7.64
2024-03-26T21:03:52.021Z,7.50
2024-03-26T21:06:20.389Z,7.39
2024-03-26T21:08:48.587Z,7.28
2024-03-26T21:11:17.334Z,7.26
2024-03-26T21:13:45.298Z,7.71
2024-03-26T21:16:14.751Z,8.26
2024-03-26T21:18:49.151Z,8.68
2024-03-26T21:21:18.844Z,9.00
2024-03-26T21:23:48.730Z,9.23
2024-03-26T21:26:18.959Z,9.45
2024-03-26T21:28:47.699Z,9.52
2024-03-26T21:31:15.841Z,9.15
2024-03-26T21:33:44.197Z,8.71
2024-03-26T21:36:12.818Z,8.36
2024-03-26T21:38:40.997Z,8.12
2024-03-26T21:41:09.303Z,7.91
2024-03-26T21:43:37.533Z,7.74
2024-03-26T21:46:05.511Z,7.60
2024-03-26T21:48:33.755Z,7.49
2024-03-26T21:51:03.151Z,7.36
2024-03-26T21:53:31.135Z,7.31
2024-03-26T21:56:10.519Z,7.71
2024-03-26T21:58:39.553Z,8.27
2024-03-26T22:01:12.079Z,8.68
2024-03-26T22:03:40.832Z,8.99
2024-03-26T22:06:12.899Z,9.21
2024-03-26T22:08:42.281Z,9.40
2024-03-26T22:11:12.940Z,9.48
2024-03-26T22:13:41.874Z,9.10
2024-03-26T22:16:10.386Z,8.64
2024-03-26T22:18:38.364Z,8.29
2024-03-26T22:21:06.216Z,8.03
2024-03-26T22:23:34.194Z,7.82
2024-03-26T22:26:05.336Z,7.63
2024-03-26T22:28:33.718Z,7.49
2024-03-26T22:31:06.941Z,7.37
2024-03-26T22:33:38.281Z,7.34
2024-03-26T22:36:10.319Z,7.78
2024-03-26T22:38:38.489Z,8.32
2024-03-26T22:41:06.887Z,8.74
2024-03-26T22:43:35.059Z,9.06
2024-03-26T22:46:04.918Z,9.28
2024-03-26T22:48:33.047Z,9.49
2024-03-26T22:51:01.813Z,9.59
2024-03-26T22:53:29.872Z,9.24
2024-03-26T22:56:03.507Z,8.78
2024-03-26T22:58:33.836Z,8.42
2024-03-26T23:01:08.237Z,8.17
2024-03-26T23:03:36.445Z,7.97
2024-03-26T23:06:05.710Z,7.79
2024-03-26T23:08:33.773Z,7.65
2024-03-26T23:11:01.875Z,7.52
2024-03-26T23:13:30.122Z,7.49
2024-03-26T23:16:04.298Z,7.92
2024-03-26T23:18:32.927Z,8.45
2024-03-26T23:21:00.991Z,8.83
2024-03-26T23:23:29.370Z,9.10
2024-03-26T23:25:57.376Z,9.31
2024-03-26T23:28:25.512Z,9.37
2024-03-26T23:30:53.581Z,8.98
2024-03-26T23:33:21.492Z,8.54
2024-03-26T23:35:50.043Z,8.19
2024-03-26T23:38:18.002Z,7.94
2024-03-26T23:40:45.995Z,7.74
2024-03-26T23:43:13.944Z,7.57
2024-03-26T23:45:42.229Z,7.43
2024-03-26T23:48:10.309Z,7.38
2024-03-26T23:50:38.359Z,7.80
2024-03-26T23:53:06.232Z,8.31
2024-03-26T23:55:34.107Z,8.70
2024-03-26T23:58:01.958Z,8.98
